Time;durP1;ratioP1;P1;durP2;ratioP2;P2;SDS_P1;SDS_P2;PMS_P1;PMS_P2;Temp;Humidity;BMP_temperature;BMP_pressure;BME280_temperature;BME280_humidity;BME280_pressure;Samples;Min_cycle;Max_cycle;Signal;HPM_P1;HPM_P2
2023/10/26 00:00:22;;;;;;;20.63;14.10;;;;;;;;;;5012365;28;20362;-89
2023/10/26 00:02:47;;;;;;;16.95;12.93;;;;;;;;;;5011955;28;20025;-89
2023/10/26 00:05:14;;;;;;;16.97;12.53;;;;;;;;;;5013162;28;20060;-89
2023/10/26 00:07:39;;;;;;;15.23;12.45;;;;;;;;;;5013692;28;20350;-89
2023/10/26 00:10:04;;;;;;;16.83;12.63;;;;;;;;;;5013094;28;20591;-89
2023/10/26 00:12:29;;;;;;;17.15;12.63;;;;;;;;;;5023483;28;20357;-89
2023/10/26 00:14:55;;;;;;;15.77;12.00;;;;;;;;;;5026361;28;20025;-88
2023/10/26 00:17:20;;;;;;;15.70;11.48;;;;;;;;;;5011757;28;20267;-89
2023/10/26 00:19:45;;;;;;;18.75;13.15;;;;;;;;;;5013096;28;20358;-89
2023/10/26 00:22:11;;;;;;;18.50;12.38;;;;;;;;;;5012356;28;20018;-89
2023/10/26 00:24:37;;;;;;;14.60;12.47;;;;;;;;;;5012008;28;20478;-88
2023/10/26 00:27:02;;;;;;;16.67;14.02;;;;;;;;;;5014579;28;20374;-88
2023/10/26 00:29:28;;;;;;;19.95;14.15;;;;;;;;;;5013260;28;20539;-88
2023/10/26 00:31:53;;;;;;;16.42;12.40;;;;;;;;;;5011903;28;20017;-88
2023/10/26 00:34:18;;;;;;;16.97;12.80;;;;;;;;;;5010888;28;20464;-88
2023/10/26 00:36:45;;;;;;;16.90;12.77;;;;;;;;;;5011259;28;20307;-88
2023/10/26 00:39:11;;;;;;;17.75;13.02;;;;;;;;;;5012320;28;20022;-87
2023/10/26 00:41:37;;;;;;;22.00;14.85;;;;;;;;;;5018192;28;20022;-88
2023/10/26 00:44:03;;;;;;;18.50;14.38;;;;;;;;;;5013206;28;20544;-88
2023/10/26 00:46:28;;;;;;;19.60;15.35;;;;;;;;;;5010980;28;20100;-87
2023/10/26 00:48:53;;;;;;;18.70;14.73;;;;;;;;;;5012165;28;20401;-88
2023/10/26 00:51:18;;;;;;;24.77;15.85;;;;;;;;;;5012029;28;20287;-88
2023/10/26 00:53:44;;;;;;;19.10;13.80;;;;;;;;;;5012282;28;20022;-88
2023/10/26 00:56:10;;;;;;;22.00;14.38;;;;;;;;;;5011583;28;20105;-87
2023/10/26 00:58:35;;;;;;;21.83;15.73;;;;;;;;;;5013112;28;20105;-88
2023/10/26 01:01:00;;;;;;;19.85;15.02;;;;;;;;;;5010553;28;20450;-88
2023/10/26 01:03:27;;;;;;;16.95;13.38;;;;;;;;;;5011740;28;20520;-88
2023/10/26 01:05:52;;;;;;;21.65;15.82;;;;;;;;;;5011851;28;20021;-87
2023/10/26 01:08:18;;;;;;;21.70;16.03;;;;;;;;;;5014959;28;20026;-87
2023/10/26 01:10:43;;;;;;;19.25;13.88;;;;;;;;;;5032611;28;20393;-87
2023/10/26 01:13:09;;;;;;;17.13;13.40;;;;;;;;;;5012174;28;20463;-88
2023/10/26 01:15:35;;;;;;;21.75;15.00;;;;;;;;;;5012752;28;20101;-88
2023/10/26 01:18:00;;;;;;;20.13;14.85;;;;;;;;;;5010787;28;20104;-90
2023/10/26 01:20:25;;;;;;;25.50;16.60;;;;;;;;;;5007765;28;20481;-89
2023/10/26 01:22:51;;;;;;;27.37;16.20;;;;;;;;;;5010498;28;20283;-89
2023/10/26 01:25:16;;;;;;;24.58;15.82;;;;;;;;;;5011637;28;20283;-88
2023/10/26 01:27:41;;;;;;;22.73;17.50;;;;;;;;;;5009024;28;20464;-88
2023/10/26 01:30:07;;;;;;;26.93;17.67;;;;;;;;;;5010792;28;20302;-89
2023/10/26 01:32:32;;;;;;;22.27;16.75;;;;;;;;;;5007260;28;20300;-89
2023/10/26 01:34:57;;;;;;;21.73;17.10;;;;;;;;;;5012493;28;20017;-88
2023/10/26 01:37:22;;;;;;;24.60;16.08;;;;;;;;;;5012508;28;20272;-88
2023/10/26 01:39:48;;;;;;;21.53;16.30;;;;;;;;;;5010227;28;20524;-89
2023/10/26 01:42:13;;;;;;;24.00;16.90;;;;;;;;;;5010533;28;20350;-89
2023/10/26 01:44:39;;;;;;;22.08;16.63;;;;;;;;;;5009179;28;20034;-88
2023/10/26 01:47:04;;;;;;;24.52;16.92;;;;;;;;;;5010588;28;20050;-89
2023/10/26 01:49:30;;;;;;;21.45;15.88;;;;;;;;;;5009872;28;20037;-88
2023/10/26 01:51:55;;;;;;;22.75;16.17;;;;;;;;;;5011243;28;20022;-88
2023/10/26 01:54:20;;;;;;;21.30;15.40;;;;;;;;;;5012193;28;20033;-89
2023/10/26 01:56:45;;;;;;;18.52;13.18;;;;;;;;;;5011757;28;20270;-88
2023/10/26 01:59:11;;;;;;;16.07;12.20;;;;;;;;;;5015270;28;20141;-88
2023/10/26 02:01:36;;;;;;;18.80;12.60;;;;;;;;;;5011801;28;20294;-88
2023/10/26 02:04:01;;;;;;;19.20;13.52;;;;;;;;;;5010800;28;20302;-88
2023/10/26 02:06:26;;;;;;;19.15;13.25;;;;;;;;;;5012234;28;20092;-88
2023/10/26 02:08:51;;;;;;;16.73;12.37;;;;;;;;;;5010821;28;20029;-88
2023/10/26 02:11:17;;;;;;;15.27;11.87;;;;;;;;;;5011587;28;20275;-88
2023/10/26 02:13:42;;;;;;;16.05;11.88;;;;;;;;;;5009344;28;20297;-88
2023/10/26 02:16:07;;;;;;;17.67;12.43;;;;;;;;;;5010960;28;20368;-88
2023/10/26 02:18:32;;;;;;;16.25;10.88;;;;;;;;;;5010824;28;20349;-88
2023/10/26 02:21:00;;;;;;;16.80;11.20;;;;;;;;;;5009921;28;20056;-88
2023/10/26 02:23:25;;;;;;;15.63;10.38;;;;;;;;;;5011265;28;20282;-88
2023/10/26 02:25:51;;;;;;;12.45;10.02;;;;;;;;;;5011924;28;20104;-88
2023/10/26 02:28:16;;;;;;;13.27;10.27;;;;;;;;;;5013653;28;20072;-90
2023/10/26 02:30:44;;;;;;;14.38;10.73;;;;;;;;;;5031550;28;20389;-91
2023/10/26 02:33:09;;;;;;;14.82;10.90;;;;;;;;;;5014387;28;20022;-88
2023/10/26 02:35:35;;;;;;;16.20;11.48;;;;;;;;;;5006912;28;20026;-89
2023/10/26 02:38:00;;;;;;;16.45;11.65;;;;;;;;;;5010075;28;20028;-89
2023/10/26 02:40:25;;;;;;;14.80;11.83;;;;;;;;;;5011708;28;20029;-88
2023/10/26 02:42:50;;;;;;;16.58;11.93;;;;;;;;;;5008991;28;20278;-89
2023/10/26 02:45:16;;;;;;;17.83;12.68;;;;;;;;;;5011472;28;20060;-88
2023/10/26 02:47:41;;;;;;;17.20;11.60;;;;;;;;;;5011406;28;20018;-88
2023/10/26 02:50:06;;;;;;;19.77;12.65;;;;;;;;;;5013337;28;20337;-89
2023/10/26 02:52:31;;;;;;;16.80;11.77;;;;;;;;;;5013839;28;20423;-88
2023/10/26 02:54:57;;;;;;;14.83;11.47;;;;;;;;;;5015730;28;20444;-89
2023/10/26 02:57:22;;;;;;;16.38;11.77;;;;;;;;;;5013502;28;20824;-89
2023/10/26 02:59:47;;;;;;;16.17;11.90;;;;;;;;;;5015163;28;20053;-89
2023/10/26 03:02:12;;;;;;;12.57;10.80;;;;;;;;;;5014115;28;20649;-88
2023/10/26 03:04:38;;;;;;;13.73;9.95;;;;;;;;;;5015109;28;20626;-88
2023/10/26 03:07:03;;;;;;;10.80;8.57;;;;;;;;;;5009391;28;20010;-89
2023/10/26 03:09:28;;;;;;;13.10;9.07;;;;;;;;;;5022867;28;20037;-88
2023/10/26 03:11:54;;;;;;;11.02;7.55;;;;;;;;;;5012904;28;20093;-89
2023/10/26 03:14:19;;;;;;;10.80;6.97;;;;;;;;;;5013136;28;20053;-88
2023/10/26 03:16:44;;;;;;;10.18;7.30;;;;;;;;;;5012965;28;20022;-89
2023/10/26 03:19:10;;;;;;;11.80;6.90;;;;;;;;;;5013344;28;20365;-88
2023/10/26 03:21:35;;;;;;;8.02;6.40;;;;;;;;;;5014677;28;20021;-89
2023/10/26 03:24:00;;;;;;;9.40;5.65;;;;;;;;;;5029573;28;20021;-89
2023/10/26 03:26:26;;;;;;;10.70;6.90;;;;;;;;;;5024366;28;20464;-88
2023/10/26 03:28:52;;;;;;;11.45;6.50;;;;;;;;;;5016923;28;20040;-88
2023/10/26 03:31:17;;;;;;;13.43;7.82;;;;;;;;;;5013704;28;20060;-89
2023/10/26 03:33:43;;;;;;;9.30;6.00;;;;;;;;;;5013638;28;20026;-89
2023/10/26 03:36:14;;;;;;;8.82;6.18;;;;;;;;;;5013079;28;20100;-88
2023/10/26 03:38:40;;;;;;;9.77;5.82;;;;;;;;;;5014329;28;20026;-89
2023/10/26 03:41:05;;;;;;;10.93;6.90;;;;;;;;;;5013725;28;20422;-89
2023/10/26 03:43:30;;;;;;;10.20;5.93;;;;;;;;;;5013481;28;20068;-89
2023/10/26 03:45:55;;;;;;;7.10;5.77;;;;;;;;;;5012928;28;20358;-88
2023/10/26 03:48:21;;;;;;;9.77;6.33;;;;;;;;;;4999426;28;20281;-89
2023/10/26 03:50:46;;;;;;;8.02;6.07;;;;;;;;;;5009038;28;20306;-89
2023/10/26 03:53:11;;;;;;;7.37;5.83;;;;;;;;;;5014257;28;20350;-89
2023/10/26 03:55:36;;;;;;;8.97;5.67;;;;;;;;;;5014588;28;20697;-89
2023/10/26 03:58:01;;;;;;;7.33;5.80;;;;;;;;;;5020450;28;20840;-89
2023/10/26 04:00:27;;;;;;;7.88;6.05;;;;;;;;;;5008964;28;20818;-88
2023/10/26 04:02:52;;;;;;;7.13;5.87;;;;;;;;;;4993799;28;20006;-88
2023/10/26 04:05:17;;;;;;;8.03;6.27;;;;;;;;;;5008210;28;20275;-89
2023/10/26 04:07:42;;;;;;;7.88;6.35;;;;;;;;;;5013658;28;20278;-88
2023/10/26 04:10:08;;;;;;;8.00;6.10;;;;;;;;;;5011698;28;20538;-89
2023/10/26 04:12:33;;;;;;;9.57;7.13;;;;;;;;;;5030499;28;20021;-88
2023/10/26 04:14:59;;;;;;;9.02;6.43;;;;;;;;;;5021135;28;20372;-89
2023/10/26 04:17:24;;;;;;;7.17;5.83;;;;;;;;;;5008638;28;20010;-89
2023/10/26 04:19:49;;;;;;;9.23;6.50;;;;;;;;;;5011641;28;20504;-89
2023/10/26 04:22:14;;;;;;;9.93;6.72;;;;;;;;;;5013425;28;20332;-89
2023/10/26 04:24:40;;;;;;;7.90;6.70;;;;;;;;;;5011605;28;20022;-89
2023/10/26 04:27:05;;;;;;;8.13;6.47;;;;;;;;;;5015308;28;20112;-89
2023/10/26 04:29:30;;;;;;;9.45;6.60;;;;;;;;;;5012319;28;20394;-89
2023/10/26 04:31:56;;;;;;;8.77;6.60;;;;;;;;;;5012368;28;20018;-89
2023/10/26 04:34:21;;;;;;;7.93;6.40;;;;;;;;;;5011566;28;20427;-87
2023/10/26 04:36:46;;;;;;;7.17;5.87;;;;;;;;;;5011844;28;20724;-86
2023/10/26 04:39:13;;;;;;;10.48;6.95;;;;;;;;;;5012555;28;20607;-88
2023/10/26 04:41:38;;;;;;;8.10;6.30;;;;;;;;;;5012577;28;20025;-87
2023/10/26 04:44:06;;;;;;;6.65;5.65;;;;;;;;;;5012075;28;20029;-88
2023/10/26 04:46:32;;;;;;;9.00;6.65;;;;;;;;;;5012067;28;20025;-87
2023/10/26 04:48:57;;;;;;;10.18;6.35;;;;;;;;;;5012422;28;20520;-87
2023/10/26 04:51:22;;;;;;;6.03;4.75;;;;;;;;;;5011984;28;20025;-87
2023/10/26 04:53:47;;;;;;;6.13;5.18;;;;;;;;;;5011408;28;20109;-87
2023/10/26 04:56:12;;;;;;;8.57;6.13;;;;;;;;;;5010555;28;20033;-88
2023/10/26 04:58:38;;;;;;;7.83;6.27;;;;;;;;;;5011183;28;20014;-87
2023/10/26 05:01:04;;;;;;;7.30;5.72;;;;;;;;;;5012788;28;20273;-87
2023/10/26 05:03:29;;;;;;;10.30;6.95;;;;;;;;;;5010805;28;20030;-88
2023/10/26 05:05:54;;;;;;;7.60;5.93;;;;;;;;;;5011509;28;20072;-88
2023/10/26 05:08:19;;;;;;;6.85;5.35;;;;;;;;;;5011212;28;20290;-87
2023/10/26 05:10:46;;;;;;;7.88;4.68;;;;;;;;;;5011530;28;20036;-87
2023/10/26 05:13:11;;;;;;;6.03;4.38;;;;;;;;;;5009282;28;20064;-87
2023/10/26 05:15:37;;;;;;;7.20;5.07;;;;;;;;;;5011556;28;20022;-87
2023/10/26 05:18:03;;;;;;;7.38;5.03;;;;;;;;;;5011783;28;20029;-87
2023/10/26 05:20:30;;;;;;;6.70;5.18;;;;;;;;;;5012387;28;20432;-88
2023/10/26 05:22:55;;;;;;;5.43;4.50;;;;;;;;;;5010852;28;20415;-88
2023/10/26 05:25:20;;;;;;;6.10;4.00;;;;;;;;;;5011257;28;20101;-88
2023/10/26 05:27:46;;;;;;;6.82;4.20;;;;;;;;;;5010708;28;20488;-87
2023/10/26 05:30:11;;;;;;;7.43;4.97;;;;;;;;;;5013926;28;20033;-88
2023/10/26 05:32:37;;;;;;;6.22;4.25;;;;;;;;;;5011835;28;20026;-88
2023/10/26 05:35:03;;;;;;;6.18;4.32;;;;;;;;;;5010554;28;20018;-88
2023/10/26 05:37:29;;;;;;;9.68;4.90;;;;;;;;;;5011930;28;20109;-88
2023/10/26 05:39:54;;;;;;;5.13;3.63;;;;;;;;;;5012239;28;20457;-90
2023/10/26 05:42:19;;;;;;;4.67;3.60;;;;;;;;;;5010616;28;20312;-88
2023/10/26 05:44:44;;;;;;;6.03;2.80;;;;;;;;;;5009192;28;20316;-87
2023/10/26 05:47:09;;;;;;;3.63;2.67;;;;;;;;;;5010815;28;20393;-88
2023/10/26 05:49:35;;;;;;;8.10;3.88;;;;;;;;;;5011476;28;20318;-90
2023/10/26 05:52:01;;;;;;;12.52;3.42;;;;;;;;;;5011321;28;20022;-87
2023/10/26 05:54:27;;;;;;;9.20;3.53;;;;;;;;;;5010153;28;20029;-88
2023/10/26 05:56:52;;;;;;;9.77;3.20;;;;;;;;;;5010263;28;20022;-87
2023/10/26 05:59:17;;;;;;;8.20;2.90;;;;;;;;;;5023478;28;20030;-87
2023/10/26 06:01:42;;;;;;;7.70;2.53;;;;;;;;;;5027099;28;20279;-87
2023/10/26 06:04:07;;;;;;;7.60;2.33;;;;;;;;;;5009616;28;20271;-87
2023/10/26 06:06:33;;;;;;;3.42;2.00;;;;;;;;;;5011903;28;20259;-88
2023/10/26 06:08:59;;;;;;;15.65;2.72;;;;;;;;;;5011339;28;20518;-88
2023/10/26 06:11:25;;;;;;;10.32;2.50;;;;;;;;;;5011938;28;20029;-88
2023/10/26 06:13:51;;;;;;;12.10;2.25;;;;;;;;;;5014649;28;20010;-88
2023/10/26 06:16:17;;;;;;;8.00;1.70;;;;;;;;;;5011636;28;20029;-88
2023/10/26 06:18:42;;;;;;;4.93;1.73;;;;;;;;;;5010745;28;20022;-88
2023/10/26 06:21:08;;;;;;;7.63;1.90;;;;;;;;;;5011903;28;20468;-87
2023/10/26 06:23:34;;;;;;;8.27;1.70;;;;;;;;;;5009621;28;20027;-88
2023/10/26 06:26:00;;;;;;;18.48;2.88;;;;;;;;;;5013515;28;20022;-88
2023/10/26 06:28:25;;;;;;;9.60;2.08;;;;;;;;;;5015589;28;20025;-87
2023/10/26 06:30:51;;;;;;;7.15;1.70;;;;;;;;;;5014141;28;20026;-88
2023/10/26 06:33:16;;;;;;;4.55;1.55;;;;;;;;;;5014585;28;20067;-88
2023/10/26 06:35:41;;;;;;;13.48;2.55;;;;;;;;;;5015534;28;20022;-88
2023/10/26 06:38:07;;;;;;;14.93;2.40;;;;;;;;;;5015106;28;20071;-88
2023/10/26 06:40:32;;;;;;;23.73;2.92;;;;;;;;;;5014324;28;20365;-88
2023/10/26 06:42:57;;;;;;;16.83;2.72;;;;;;;;;;5014845;28;20030;-87
2023/10/26 06:45:22;;;;;;;20.77;3.30;;;;;;;;;;5018298;28;20025;-88
2023/10/26 06:47:48;;;;;;;21.88;2.40;;;;;;;;;;5025002;28;20295;-88
2023/10/26 06:50:13;;;;;;;14.75;2.17;;;;;;;;;;5014288;28;21560;-88
2023/10/26 06:52:38;;;;;;;17.42;2.13;;;;;;;;;;5014311;28;20021;-88
2023/10/26 06:55:03;;;;;;;12.48;1.88;;;;;;;;;;5015014;28;20034;-88
2023/10/26 06:57:32;;;;;;;17.80;3.28;;;;;;;;;;5013994;28;20030;-88
2023/10/26 06:59:58;;;;;;;19.83;3.33;;;;;;;;;;5014935;28;20014;-88
2023/10/26 07:02:23;;;;;;;18.08;2.42;;;;;;;;;;5012089;28;20014;-88
2023/10/26 07:04:49;;;;;;;18.20;1.70;;;;;;;;;;5014741;28;20272;-88
2023/10/26 07:07:14;;;;;;;13.98;2.35;;;;;;;;;;5011783;28;20105;-88
2023/10/26 07:09:40;;;;;;;17.33;2.50;;;;;;;;;;5013065;28;20042;-88
2023/10/26 07:12:05;;;;;;;23.02;3.92;;;;;;;;;;5014709;28;20383;-88
2023/10/26 07:14:31;;;;;;;25.30;3.28;;;;;;;;;;5011560;28;20036;-88
2023/10/26 07:16:56;;;;;;;20.10;2.80;;;;;;;;;;5013713;28;20017;-88
2023/10/26 07:19:22;;;;;;;25.90;4.18;;;;;;;;;;5013527;28;20018;-88
2023/10/26 07:21:47;;;;;;;13.52;2.60;;;;;;;;;;5012920;28;20093;-89
2023/10/26 07:24:12;;;;;;;20.88;2.90;;;;;;;;;;5011346;28;20022;-93
2023/10/26 07:26:37;;;;;;;13.60;1.90;;;;;;;;;;5012068;28;20052;-89
2023/10/26 07:29:02;;;;;;;13.83;1.63;;;;;;;;;;5013302;28;20306;-87
2023/10/26 07:31:28;;;;;;;13.10;1.98;;;;;;;;;;5012952;28;20313;-89
2023/10/26 07:33:53;;;;;;;20.30;2.60;;;;;;;;;;5018736;28;20029;-88
2023/10/26 07:36:18;;;;;;;17.48;2.75;;;;;;;;;;5024344;28;20267;-88
2023/10/26 07:38:44;;;;;;;18.30;2.70;;;;;;;;;;5023245;28;20025;-91
2023/10/26 07:41:09;;;;;;;22.80;2.72;;;;;;;;;;5029553;28;20018;-89
2023/10/26 07:43:35;;;;;;;16.10;2.77;;;;;;;;;;5025423;28;20424;-87
2023/10/26 07:46:00;;;;;;;23.25;3.10;;;;;;;;;;5013916;28;20734;-88
2023/10/26 07:48:25;;;;;;;25.30;2.72;;;;;;;;;;5013334;28;20061;-89
2023/10/26 07:50:53;;;;;;;15.10;2.65;;;;;;;;;;5023115;28;20072;-89
2023/10/26 07:53:19;;;;;;;32.00;4.85;;;;;;;;;;5019769;28;20068;-88
2023/10/26 07:55:44;;;;;;;16.45;2.20;;;;;;;;;;5012106;28;20038;-92
2023/10/26 07:58:10;;;;;;;20.35;2.38;;;;;;;;;;5012953;28;20065;-95
2023/10/26 08:00:38;;;;;;;23.35;3.53;;;;;;;;;;5014356;28;20033;-93
2023/10/26 08:03:03;;;;;;;19.48;2.92;;;;;;;;;;5012321;28;20077;-90
2023/10/26 08:05:29;;;;;;;20.08;4.10;;;;;;;;;;5012603;28;20026;-92
2023/10/26 08:07:54;;;;;;;19.20;2.83;;;;;;;;;;5013958;28;20029;-92
2023/10/26 08:10:19;;;;;;;20.83;4.72;;;;;;;;;;5012739;28;20087;-92
2023/10/26 08:12:45;;;;;;;17.45;3.33;;;;;;;;;;5013160;28;20028;-93
2023/10/26 08:15:10;;;;;;;25.08;2.50;;;;;;;;;;5012323;28;20025;-90
2023/10/26 08:17:35;;;;;;;31.63;3.45;;;;;;;;;;5012967;28;20021;-89
2023/10/26 08:20:07;;;;;;;19.58;2.78;;;;;;;;;;5015436;28;20080;-89
2023/10/26 08:22:35;;;;;;;23.08;3.50;;;;;;;;;;5012957;28;20144;-93
2023/10/26 08:25:01;;;;;;;28.27;3.90;;;;;;;;;;5013514;28;20395;-88
2023/10/26 08:27:26;;;;;;;34.58;4.35;;;;;;;;;;5013444;28;20022;-88
2023/10/26 08:29:51;;;;;;;23.98;4.00;;;;;;;;;;5013508;28;20029;-87
2023/10/26 08:32:17;;;;;;;31.25;4.25;;;;;;;;;;5012612;28;20041;-89
2023/10/26 08:34:44;;;;;;;29.67;4.32;;;;;;;;;;5013600;28;20022;-91
2023/10/26 08:37:09;;;;;;;30.10;3.97;;;;;;;;;;5012274;28;20060;-90
2023/10/26 08:39:35;;;;;;;21.43;3.43;;;;;;;;;;5013666;28;20053;-90
2023/10/26 08:42:01;;;;;;;16.63;3.40;;;;;;;;;;5011596;28;20291;-89
2023/10/26 08:44:28;;;;;;;26.55;3.67;;;;;;;;;;5012517;28;20112;-89
2023/10/26 08:46:57;;;;;;;24.98;3.90;;;;;;;;;;5012158;28;20017;-90
2023/10/26 08:49:24;;;;;;;23.52;3.25;;;;;;;;;;5011833;28;20033;-88
2023/10/26 08:51:50;;;;;;;26.50;4.07;;;;;;;;;;5012705;28;20393;-90
2023/10/26 08:54:15;;;;;;;21.95;4.18;;;;;;;;;;5028176;28;20033;-91
2023/10/26 08:56:41;;;;;;;24.23;3.22;;;;;;;;;;5012556;28;20025;-88
2023/10/26 08:59:06;;;;;;;19.15;4.18;;;;;;;;;;5012811;28;20383;-89
2023/10/26 09:01:31;;;;;;;29.73;3.47;;;;;;;;;;5012244;28;20050;-88
2023/10/26 09:03:56;;;;;;;30.23;4.32;;;;;;;;;;4995886;28;20256;-89
2023/10/26 09:06:21;;;;;;;20.92;2.88;;;;;;;;;;4993181;28;20026;-88
2023/10/26 09:09:01;;;;;;;24.60;3.43;;;;;;;;;;4993147;28;20026;-89
2023/10/26 09:11:26;;;;;;;20.25;4.47;;;;;;;;;;5008222;28;20264;-90
2023/10/26 09:13:52;;;;;;;22.98;3.88;;;;;;;;;;4993261;28;20036;-89
2023/10/26 09:16:18;;;;;;;18.48;3.47;;;;;;;;;;5011028;28;20081;-89
2023/10/26 09:18:50;;;;;;;22.92;3.28;;;;;;;;;;5011475;28;20029;-90
2023/10/26 09:21:16;;;;;;;20.00;3.40;;;;;;;;;;5010893;28;20021;-89
2023/10/26 09:23:42;;;;;;;22.75;3.35;;;;;;;;;;5012147;28;20025;-90
2023/10/26 09:26:07;;;;;;;28.10;3.13;;;;;;;;;;5012253;28;20064;-90
2023/10/26 09:28:51;;;;;;;22.77;4.28;;;;;;;;;;5010970;28;20465;-92
2023/10/26 09:31:17;;;;;;;18.67;2.65;;;;;;;;;;5026385;28;20057;-91
2023/10/26 09:33:42;;;;;;;19.30;2.78;;;;;;;;;;5011930;28;20044;-92
2023/10/26 09:36:14;;;;;;;25.67;3.65;;;;;;;;;;5012366;28;20072;-90
2023/10/26 09:38:39;;;;;;;;;;;;;;;;;;5012601;28;20022;-90
2023/10/26 09:41:12;;;;;;;23.73;3.23;;;;;;;;;;5012172;28;19915;-88
2023/10/26 09:43:38;;;;;;;24.48;3.70;;;;;;;;;;5011949;28;20021;-89
2023/10/26 09:46:03;;;;;;;22.52;3.67;;;;;;;;;;5012195;28;20109;-91
2023/10/26 09:48:28;;;;;;;24.30;3.83;;;;;;;;;;5011236;28;20487;-92
2023/10/26 09:50:54;;;;;;;19.83;3.10;;;;;;;;;;5012164;28;20026;-90
2023/10/26 09:53:20;;;;;;;19.65;3.30;;;;;;;;;;5009189;28;20017;-89
2023/10/26 09:55:47;;;;;;;23.33;3.15;;;;;;;;;;5010144;28;20028;-89
2023/10/26 09:58:13;;;;;;;20.02;2.95;;;;;;;;;;5008169;28;20052;-91
2023/10/26 10:00:39;;;;;;;22.52;3.70;;;;;;;;;;5008886;28;20475;-89
2023/10/26 10:03:17;;;;;;;22.55;3.63;;;;;;;;;;5010084;28;20025;-91
2023/10/26 10:05:43;;;;;;;18.85;3.10;;;;;;;;;;5011842;28;20072;-90
2023/10/26 10:08:09;;;;;;;23.33;3.67;;;;;;;;;;5010542;28;20021;-89
2023/10/26 10:10:35;;;;;;;21.13;4.28;;;;;;;;;;5010562;28;20030;-91
2023/10/26 10:13:01;;;;;;;13.98;3.15;;;;;;;;;;5011761;28;20018;-91
2023/10/26 10:15:34;;;;;;;21.20;3.13;;;;;;;;;;5010019;28;20040;-91
2023/10/26 10:17:59;;;;;;;15.13;2.60;;;;;;;;;;5026308;28;20272;-90
2023/10/26 10:20:29;;;;;;;23.67;3.70;;;;;;;;;;5026856;28;20288;-91
2023/10/26 10:22:58;;;;;;;26.58;3.75;;;;;;;;;;5027035;28;20384;-90
2023/10/26 10:25:43;;;;;;;18.77;2.92;;;;;;;;;;5011768;28;20022;-91
2023/10/26 10:28:09;;;;;;;19.80;3.10;;;;;;;;;;5009549;28;20057;-92
2023/10/26 10:30:46;;;;;;;13.70;2.58;;;;;;;;;;5011595;28;20028;-91
2023/10/26 10:33:14;;;;;;;15.30;3.13;;;;;;;;;;5026074;28;20495;-90
2023/10/26 10:35:45;;;;;;;23.00;4.05;;;;;;;;;;5010113;28;20108;-89
2023/10/26 10:38:13;;;;;;;21.88;3.10;;;;;;;;;;5011520;28;20022;-90
2023/10/26 10:40:39;;;;;;;18.80;3.55;;;;;;;;;;5010182;28;20014;-90
2023/10/26 10:43:05;;;;;;;21.42;3.70;;;;;;;;;;5000365;28;20060;-90
2023/10/26 10:45:30;;;;;;;19.10;3.05;;;;;;;;;;5009616;28;20030;-90
2023/10/26 10:47:56;;;;;;;16.20;2.83;;;;;;;;;;5011051;28;20018;-90
2023/10/26 10:50:22;;;;;;;17.58;3.65;;;;;;;;;;5010294;28;20103;-90
2023/10/26 10:52:54;;;;;;;16.38;3.05;;;;;;;;;;5011111;28;20014;-90
2023/10/26 10:55:20;;;;;;;13.80;2.70;;;;;;;;;;5011102;28;20034;-89
2023/10/26 10:57:51;;;;;;;16.02;3.13;;;;;;;;;;5009604;28;20029;-89
2023/10/26 11:00:17;;;;;;;14.55;3.03;;;;;;;;;;4998576;28;20022;-88
2023/10/26 11:02:49;;;;;;;16.95;3.30;;;;;;;;;;5008838;28;20479;-88
2023/10/26 11:05:14;;;;;;;19.02;2.78;;;;;;;;;;5011183;28;20024;-88
2023/10/26 11:07:39;;;;;;;10.38;2.33;;;;;;;;;;5003805;28;20496;-88
2023/10/26 11:10:05;;;;;;;13.35;1.98;;;;;;;;;;5011154;28;20124;-88
2023/10/26 11:12:30;;;;;;;9.77;2.00;;;;;;;;;;5014645;28;20017;-89
2023/10/26 11:14:56;;;;;;;14.50;2.30;;;;;;;;;;5009624;28;20017;-89
2023/10/26 11:17:22;;;;;;;15.07;2.45;;;;;;;;;;5012497;28;20025;-88
2023/10/26 11:19:48;;;;;;;15.05;2.65;;;;;;;;;;5014366;28;20013;-89
2023/10/26 11:22:13;;;;;;;14.13;2.35;;;;;;;;;;5013296;28;20484;-88
2023/10/26 11:24:39;;;;;;;13.32;2.33;;;;;;;;;;5016218;28;20033;-89
2023/10/26 11:27:05;;;;;;;13.63;2.20;;;;;;;;;;5014702;28;20010;-88
2023/10/26 11:29:30;;;;;;;24.90;3.95;;;;;;;;;;5014521;28;20476;-88
2023/10/26 11:31:55;;;;;;;17.80;2.60;;;;;;;;;;5013402;28;20026;-88
2023/10/26 11:34:24;;;;;;;10.27;2.10;;;;;;;;;;5015770;28;20259;-88
2023/10/26 11:36:50;;;;;;;17.80;3.67;;;;;;;;;;5015570;28;20258;-88
2023/10/26 11:39:15;;;;;;;13.75;3.88;;;;;;;;;;5014337;28;20026;-88
2023/10/26 11:41:40;;;;;;;16.38;2.45;;;;;;;;;;5014354;28;20022;-89
2023/10/26 11:44:22;;;;;;;20.50;2.70;;;;;;;;;;5013238;28;20026;-89
2023/10/26 11:46:55;;;;;;;13.27;2.90;;;;;;;;;;5013346;28;20266;-86
2023/10/26 11:49:22;;;;;;;12.63;2.15;;;;;;;;;;5013997;28;20022;-87
2023/10/26 11:51:47;;;;;;;18.30;2.63;;;;;;;;;;5013934;28;20026;-88
2023/10/26 11:54:13;;;;;;;16.37;2.50;;;;;;;;;;5014043;28;20104;-88
2023/10/26 11:56:38;;;;;;;18.17;2.85;;;;;;;;;;5012143;28;20350;-92
2023/10/26 11:59:04;;;;;;;15.27;2.92;;;;;;;;;;5016052;28;20014;-91
2023/10/26 12:01:29;;;;;;;9.85;1.95;;;;;;;;;;5012659;28;20084;-90
2023/10/26 12:03:54;;;;;;;18.30;2.77;;;;;;;;;;5013448;28;20022;-90
2023/10/26 12:06:19;;;;;;;12.98;2.42;;;;;;;;;;5013645;28;20302;-90
2023/10/26 12:08:44;;;;;;;15.57;4.90;;;;;;;;;;5013809;28;20022;-92
2023/10/26 12:11:11;;;;;;;12.73;1.97;;;;;;;;;;5014112;28;20264;-90
2023/10/26 12:13:36;;;;;;;11.90;2.58;;;;;;;;;;5011838;28;20242;-90
2023/10/26 12:16:01;;;;;;;11.20;1.98;;;;;;;;;;5012646;28;20100;-87
2023/10/26 12:18:27;;;;;;;9.82;1.90;;;;;;;;;;5013633;28;20384;-89
2023/10/26 12:20:52;;;;;;;13.03;1.70;;;;;;;;;;5013620;28;20022;-88
2023/10/26 12:23:17;;;;;;;10.88;2.15;;;;;;;;;;5013080;28;20781;-89
2023/10/26 12:25:43;;;;;;;9.77;1.90;;;;;;;;;;5013859;28;20022;-90
2023/10/26 12:28:08;;;;;;;10.27;2.55;;;;;;;;;;5013386;28;20018;-89
2023/10/26 12:30:33;;;;;;;14.73;2.40;;;;;;;;;;5012856;28;20188;-89
2023/10/26 12:32:59;;;;;;;14.55;2.08;;;;;;;;;;5013437;28;20251;-88
2023/10/26 12:35:24;;;;;;;10.50;2.23;;;;;;;;;;5013523;28;20380;-87
2023/10/26 12:37:49;;;;;;;9.68;2.70;;;;;;;;;;5013424;28;20768;-92
2023/10/26 12:40:15;;;;;;;8.55;1.73;;;;;;;;;;5011724;28;20041;-90
2023/10/26 12:42:41;;;;;;;8.05;1.85;;;;;;;;;;5013141;28;20018;-91
2023/10/26 12:45:06;;;;;;;11.15;2.00;;;;;;;;;;5010941;28;20029;-92
2023/10/26 12:47:32;;;;;;;10.40;1.75;;;;;;;;;;4996383;28;20013;-92
2023/10/26 12:49:57;;;;;;;12.03;2.13;;;;;;;;;;5011637;28;20373;-93
2023/10/26 12:52:22;;;;;;;12.65;2.75;;;;;;;;;;5012624;28;20741;-92
2023/10/26 12:54:47;;;;;;;10.13;2.17;;;;;;;;;;5013096;28;20113;-93
2023/10/26 12:57:12;;;;;;;14.33;3.17;;;;;;;;;;5012551;28;20260;-92
2023/10/26 12:59:38;;;;;;;7.43;2.20;;;;;;;;;;5012304;28;20263;-90
2023/10/26 13:02:03;;;;;;;9.77;1.83;;;;;;;;;;5011596;28;20283;-90
2023/10/26 13:04:28;;;;;;;17.30;2.83;;;;;;;;;;5001964;28;20351;-92
2023/10/26 13:06:53;;;;;;;9.25;2.10;;;;;;;;;;5000360;28;20061;-92
2023/10/26 13:09:19;;;;;;;12.97;2.17;;;;;;;;;;5036065;28;20038;-94
2023/10/26 13:11:44;;;;;;;12.63;2.40;;;;;;;;;;5011780;28;20262;-93
2023/10/26 13:14:09;;;;;;;9.90;2.58;;;;;;;;;;5012554;28;20750;-92
2023/10/26 13:16:34;;;;;;;12.55;2.20;;;;;;;;;;5012253;28;20101;-92
2023/10/26 13:19:00;;;;;;;8.70;2.33;;;;;;;;;;5011822;28;20044;-93
2023/10/26 13:21:25;;;;;;;9.95;2.25;;;;;;;;;;5011964;28;20244;-92
2023/10/26 13:23:50;;;;;;;9.60;2.37;;;;;;;;;;5012289;28;20034;-91
2023/10/26 13:26:15;;;;;;;10.20;1.90;;;;;;;;;;5012679;28;20263;-90
2023/10/26 13:28:41;;;;;;;16.50;2.70;;;;;;;;;;5012400;28;20263;-91
2023/10/26 13:31:06;;;;;;;10.57;2.10;;;;;;;;;;5011135;28;20278;-91
2023/10/26 13:33:32;;;;;;;10.25;1.75;;;;;;;;;;5026369;28;20255;-89
2023/10/26 13:35:58;;;;;;;13.10;2.50;;;;;;;;;;5011885;28;20041;-89
2023/10/26 13:38:23;;;;;;;6.82;1.33;;;;;;;;;;5011851;28;20033;-90
2023/10/26 13:40:48;;;;;;;7.30;1.40;;;;;;;;;;5010964;28;20034;-90
2023/10/26 13:43:16;;;;;;;6.60;1.20;;;;;;;;;;5009629;28;20672;-90
2023/10/26 13:45:42;;;;;;;4.72;1.35;;;;;;;;;;5006627;28;20757;-89
2023/10/26 13:48:08;;;;;;;7.63;1.63;;;;;;;;;;5009021;28;20040;-90
2023/10/26 13:50:34;;;;;;;6.97;2.33;;;;;;;;;;5010659;28;20368;-89
2023/10/26 13:52:59;;;;;;;3.30;0.88;;;;;;;;;;5010611;28;20466;-91
2023/10/26 13:55:25;;;;;;;11.90;1.60;;;;;;;;;;5009070;28;20157;-90
2023/10/26 13:57:50;;;;;;;6.45;1.13;;;;;;;;;;5010922;28;20024;-90
2023/10/26 14:00:16;;;;;;;8.10;1.25;;;;;;;;;;5008662;28;20388;-90
2023/10/26 14:02:41;;;;;;;9.15;1.30;;;;;;;;;;5010431;28;20464;-91
2023/10/26 14:05:07;;;;;;;10.13;1.55;;;;;;;;;;5009203;28;20021;-91
2023/10/26 14:07:32;;;;;;;11.20;2.05;;;;;;;;;;5009076;28;20491;-91
2023/10/26 14:09:57;;;;;;;13.45;2.50;;;;;;;;;;5010477;28;20030;-90
2023/10/26 14:12:22;;;;;;;9.93;2.38;;;;;;;;;;5009182;28;20018;-90
2023/10/26 14:14:48;;;;;;;16.53;2.50;;;;;;;;;;5009751;28;20062;-91
2023/10/26 14:17:13;;;;;;;10.87;1.87;;;;;;;;;;5010498;28;20287;-90
2023/10/26 14:19:38;;;;;;;9.63;1.93;;;;;;;;;;5010442;28;20326;-88
2023/10/26 14:22:03;;;;;;;8.00;1.80;;;;;;;;;;5010328;28;20256;-88